createdAt,value
2022-10-16T00:04:20.728Z,100.00
2022-10-16T00:14:23.272Z,100.00
2022-10-16T00:24:26.345Z,100.00
2022-10-16T00:34:28.745Z,100.00
2022-10-16T00:44:47.371Z,100.00
2022-10-16T00:54:52.564Z,100.00
2022-10-16T01:04:55.843Z,100.00
2022-10-16T01:15:23.223Z,100.00
2022-10-16T01:26:00.916Z,100.00
2022-10-16T01:36:16.432Z,100.00
2022-10-16T01:46:21.519Z,100.00
2022-10-16T01:56:25.886Z,100.00
2022-10-16T02:06:28.299Z,100.00
2022-10-16T02:16:48.991Z,100.00
2022-10-16T02:27:20.628Z,100.00
2022-10-16T02:37:23.003Z,100.00
2022-10-16T02:47:25.341Z,100.00
2022-10-16T02:57:28.404Z,100.00
2022-10-16T03:07:30.991Z,100.00
2022-10-16T03:17:33.745Z,100.00
2022-10-16T03:27:36.044Z,100.00
2022-10-16T03:37:38.309Z,100.00
2022-10-16T03:47:40.696Z,100.00
2022-10-16T03:57:43.150Z,100.00
2022-10-16T04:07:45.520Z,100.00
2022-10-16T04:17:48.164Z,100.00
2022-10-16T04:27:50.472Z,100.00
2022-10-16T04:37:52.660Z,100.00
2022-10-16T04:47:58.742Z,100.00
2022-10-16T04:58:01.018Z,100.00
2022-10-16T05:08:03.617Z,100.00
2022-10-16T05:18:06.001Z,100.00
2022-10-16T05:28:08.287Z,100.00
2022-10-16T05:38:10.634Z,100.00
2022-10-16T05:48:12.882Z,100.00
2022-10-16T05:58:15.192Z,100.00
2022-10-16T06:08:17.567Z,100.00
2022-10-16T06:18:19.797Z,100.00
2022-10-16T06:28:22.204Z,100.00
2022-10-16T06:38:24.534Z,100.00
2022-10-16T06:48:27.750Z,100.00
2022-10-16T06:58:30.298Z,100.00
2022-10-16T07:08:37.469Z,100.00
2022-10-16T07:18:41.578Z,100.00
2022-10-16T07:28:45.378Z,100.00
2022-10-16T07:38:49.139Z,100.00
2022-10-16T07:48:52.367Z,100.00
2022-10-16T07:58:54.743Z,100.00
2022-10-16T08:08:57.776Z,100.00
2022-10-16T08:19:00.101Z,100.00
2022-10-16T08:29:02.888Z,100.00
2022-10-16T08:39:05.457Z,100.00
2022-10-16T08:49:14.950Z,100.00
2022-10-16T08:59:18.899Z,100.00
2022-10-16T09:09:33.346Z,100.00
2022-10-16T09:19:42.323Z,100.00
2022-10-16T09:29:45.414Z,100.00
2022-10-16T09:39:56.002Z,100.00
2022-10-16T09:50:10.785Z,100.00
2022-10-16T10:00:18.037Z,100.00
2022-10-16T10:10:29.215Z,100.00
2022-10-16T10:20:35.740Z,100.00
2022-10-16T10:30:38.510Z,100.00
2022-10-16T10:40:52.684Z,99.04
2022-10-16T10:51:43.046Z,98.52
2022-10-16T11:02:05.280Z,96.59
2022-10-16T11:12:23.440Z,94.86
2022-10-16T11:22:31.921Z,94.23
2022-10-16T11:32:50.915Z,91.68
2022-10-16T11:43:14.868Z,91.48
2022-10-16T11:53:26.250Z,88.40
2022-10-16T12:03:45.805Z,82.49
2022-10-16T12:13:50.137Z,86.47
2022-10-16T12:23:56.287Z,83.66
2022-10-16T12:34:05.332Z,80.68
2022-10-16T12:44:28.316Z,80.30
2022-10-16T12:54:39.257Z,77.23
2022-10-16T13:04:51.699Z,76.48
2022-10-16T13:15:18.995Z,77.45
2022-10-16T13:25:41.168Z,76.42
2022-10-16T13:35:53.503Z,75.65
2022-10-16T13:46:07.565Z,75.69
2022-10-16T13:56:19.445Z,77.14
2022-10-16T14:06:25.962Z,76.81
2022-10-16T14:16:32.492Z,78.33
2022-10-16T14:26:49.658Z,80.60
2022-10-16T14:36:53.993Z,80.81
2022-10-16T14:46:58.520Z,83.97
2022-10-16T14:57:01.327Z,87.67
2022-10-16T15:07:04.216Z,90.27
2022-10-16T15:17:07.490Z,92.65
2022-10-16T15:27:11.470Z,93.63
2022-10-16T15:37:15.181Z,95.14
2022-10-16T15:47:17.914Z,97.55
2022-10-16T15:57:20.823Z,99.75
2022-10-16T16:07:23.556Z,100.00
2022-10-16T16:17:26.211Z,100.00
2022-10-16T16:27:31.197Z,100.00
2022-10-16T16:37:34.387Z,100.00
2022-10-16T16:47:37.189Z,100.00
2022-10-16T16:57:39.703Z,100.00
2022-10-16T17:07:42.583Z,100.00
2022-10-16T17:17:45.009Z,100.00
2022-10-16T17:27:47.349Z,100.00
2022-10-16T17:37:49.808Z,100.00
2022-10-16T17:47:52.472Z,100.00
2022-10-16T17:57:54.960Z,100.00
2022-10-16T18:07:58.333Z,100.00
2022-10-16T18:18:01.067Z,100.00
2022-10-16T18:28:03.686Z,100.00
2022-10-16T18:38:06.507Z,100.00
2022-10-16T18:48:09.257Z,100.00
2022-10-16T18:58:13.028Z,100.00
2022-10-16T19:08:16.638Z,100.00
2022-10-16T19:18:21.393Z,100.00
2022-10-16T19:28:27.032Z,100.00
2022-10-16T19:38:29.435Z,100.00
2022-10-16T19:48:33.783Z,100.00
2022-10-16T19:58:36.416Z,100.00
2022-10-16T20:08:40.472Z,100.00
2022-10-16T20:18:43.454Z,100.00
2022-10-16T20:28:46.175Z,100.00
2022-10-16T20:38:49.299Z,100.00
2022-10-16T20:48:52.529Z,100.00
2022-10-16T20:58:55.134Z,100.00
2022-10-16T21:09:00.038Z,100.00
2022-10-16T21:19:02.761Z,100.00
2022-10-16T21:29:07.572Z,100.00
2022-10-16T21:39:15.622Z,100.00
2022-10-16T21:49:20.240Z,100.00
2022-10-16T21:59:22.781Z,100.00
2022-10-16T22:09:25.311Z,100.00
2022-10-16T22:19:28.513Z,100.00
2022-10-16T22:29:31.500Z,100.00
2022-10-16T22:39:33.984Z,100.00
2022-10-16T22:49:36.918Z,100.00
2022-10-16T22:59:39.641Z,100.00
2022-10-16T23:09:42.275Z,100.00
2022-10-16T23:19:44.652Z,100.00
2022-10-16T23:29:47.074Z,100.00
2022-10-16T23:39:50.810Z,100.00
2022-10-16T23:49:53.499Z,100.00
2022-10-16T23:59:55.856Z,100.00
